createdAt,value
2022-07-27T00:01:43.919Z,45.98
2022-07-27T00:04:18.315Z,44.60
2022-07-27T00:06:44.845Z,44.62
2022-07-27T00:09:11.890Z,45.26
2022-07-27T00:11:38.873Z,45.76
2022-07-27T00:14:05.451Z,46.26
2022-07-27T00:16:32.375Z,46.12
2022-07-27T00:18:58.897Z,45.48
2022-07-27T00:21:26.654Z,45.44
2022-07-27T00:23:54.377Z,45.54
2022-07-27T00:26:21.148Z,46.33
2022-07-27T00:28:47.961Z,46.42
2022-07-27T00:31:14.670Z,45.50
2022-07-27T00:33:41.228Z,45.96
2022-07-27T00:36:08.020Z,47.45
2022-07-27T00:38:34.507Z,47.20
2022-07-27T00:41:01.039Z,46.76
2022-07-27T00:43:27.776Z,47.21
2022-07-27T00:45:54.253Z,49.53
2022-07-27T00:48:20.807Z,49.06
2022-07-27T00:50:48.140Z,48.58
2022-07-27T00:53:14.827Z,49.61
2022-07-27T00:55:41.386Z,47.69
2022-07-27T00:58:09.005Z,47.35
2022-07-27T01:00:37.179Z,47.21
2022-07-27T01:03:09.101Z,47.53
2022-07-27T01:05:43.325Z,48.42
2022-07-27T01:08:13.737Z,48.39
2022-07-27T01:10:44.463Z,47.95
2022-07-27T01:13:13.176Z,48.18
2022-07-27T01:15:40.811Z,49.59
2022-07-27T01:18:27.003Z,50.66
2022-07-27T01:20:54.151Z,51.23
2022-07-27T01:23:20.629Z,50.08
2022-07-27T01:25:47.278Z,49.62
2022-07-27T01:28:13.737Z,49.19
2022-07-27T01:30:40.402Z,48.45
2022-07-27T01:33:10.919Z,48.89
2022-07-27T01:35:39.019Z,49.82
2022-07-27T01:38:07.522Z,51.79
2022-07-27T01:40:36.843Z,51.49
2022-07-27T01:43:05.317Z,53.22
2022-07-27T01:45:32.101Z,53.94
2022-07-27T01:47:58.580Z,52.00
2022-07-27T01:50:25.075Z,51.36
2022-07-27T01:52:51.518Z,50.45
2022-07-27T01:55:17.978Z,49.95
2022-07-27T01:57:44.486Z,49.88
2022-07-27T02:00:12.132Z,52.48
2022-07-27T02:02:39.782Z,50.29
2022-07-27T02:05:07.603Z,50.20
2022-07-27T02:07:34.134Z,49.46
2022-07-27T02:10:00.607Z,50.22
2022-07-27T02:12:36.138Z,51.76
2022-07-27T02:15:06.976Z,50.32
2022-07-27T02:17:35.164Z,50.48
2022-07-27T02:20:02.333Z,51.00
2022-07-27T02:22:29.080Z,52.41
2022-07-27T02:24:55.878Z,50.96
2022-07-27T02:27:22.569Z,51.26
2022-07-27T02:29:49.102Z,50.92
2022-07-27T02:32:17.392Z,51.20
2022-07-27T02:34:44.181Z,52.80
2022-07-27T02:37:10.806Z,51.36
2022-07-27T02:39:37.393Z,53.22
2022-07-27T02:42:04.221Z,51.75
2022-07-27T02:44:30.739Z,51.29
2022-07-27T02:46:57.353Z,52.87
2022-07-27T02:49:24.097Z,52.40
2022-07-27T02:51:52.106Z,53.20
2022-07-27T02:54:19.833Z,52.48
2022-07-27T02:56:46.300Z,53.27
2022-07-27T02:59:13.078Z,53.19
2022-07-27T03:01:40.012Z,52.91
2022-07-27T03:04:06.572Z,53.91
2022-07-27T03:06:33.095Z,52.61
2022-07-27T03:09:02.521Z,52.40
2022-07-27T03:11:28.989Z,52.22
2022-07-27T03:13:55.826Z,52.83
2022-07-27T03:16:22.426Z,52.31
2022-07-27T03:18:49.888Z,52.05
2022-07-27T03:21:16.731Z,52.56
2022-07-27T03:23:43.273Z,52.89
2022-07-27T03:26:09.779Z,53.27
2022-07-27T03:28:36.323Z,53.57
2022-07-27T03:31:03.879Z,53.81
2022-07-27T03:33:30.468Z,52.84
2022-07-27T03:35:57.503Z,53.15
2022-07-27T03:38:24.009Z,52.72
2022-07-27T03:40:50.521Z,53.04
2022-07-27T03:43:17.015Z,54.77
2022-07-27T03:45:44.508Z,55.18
2022-07-27T03:48:11.148Z,54.11
2022-07-27T03:50:37.891Z,55.73
2022-07-27T03:53:04.474Z,56.38
2022-07-27T03:55:30.999Z,57.04
2022-07-27T03:57:57.486Z,57.56
2022-07-27T04:00:24.503Z,58.47
2022-07-27T04:02:51.843Z,56.98
2022-07-27T04:05:18.490Z,55.32
2022-07-27T04:07:45.044Z,56.32
2022-07-27T04:10:11.967Z,55.46
2022-07-27T04:12:41.496Z,55.45
2022-07-27T04:15:08.495Z,56.48
2022-07-27T04:17:54.763Z,54.68
2022-07-27T04:20:21.756Z,55.84
2022-07-27T04:22:48.786Z,56.90
2022-07-27T04:25:15.303Z,58.21
2022-07-27T04:27:41.848Z,55.88
2022-07-27T04:30:11.884Z,56.81
2022-07-27T04:32:38.496Z,55.71
2022-07-27T04:35:06.470Z,56.50
2022-07-27T04:37:33.372Z,56.03
2022-07-27T04:40:00.872Z,57.13
2022-07-27T04:42:27.557Z,54.70
2022-07-27T04:44:54.201Z,54.87
2022-07-27T04:47:20.869Z,53.74
2022-07-27T04:49:47.436Z,53.31
2022-07-27T04:52:17.487Z,54.58
2022-07-27T04:54:45.056Z,54.67
2022-07-27T04:57:11.636Z,57.00
2022-07-27T04:59:38.172Z,55.09
2022-07-27T05:02:04.705Z,54.12
2022-07-27T05:04:31.292Z,55.33
2022-07-27T05:06:57.883Z,56.04
2022-07-27T05:09:24.501Z,55.64
2022-07-27T05:11:51.870Z,55.55
2022-07-27T05:14:19.740Z,56.84
2022-07-27T05:16:47.968Z,56.50
2022-07-27T05:19:15.051Z,55.60
2022-07-27T05:21:41.832Z,57.57
2022-07-27T05:24:08.375Z,55.86
2022-07-27T05:26:34.845Z,57.07
2022-07-27T05:29:01.385Z,56.67
2022-07-27T05:31:27.951Z,56.10
2022-07-27T05:33:58.215Z,54.95
2022-07-27T05:36:27.958Z,53.44
2022-07-27T05:38:57.589Z,54.07
2022-07-27T05:41:26.193Z,54.38
2022-07-27T05:43:54.482Z,54.00
2022-07-27T05:46:21.785Z,53.06
2022-07-27T05:48:48.544Z,52.52
2022-07-27T05:51:15.092Z,53.59
2022-07-27T05:53:41.603Z,53.90
2022-07-27T05:56:08.141Z,51.96
2022-07-27T05:58:34.745Z,53.86
2022-07-27T06:01:01.462Z,51.34
2022-07-27T06:03:28.102Z,49.91
2022-07-27T06:06:14.642Z,51.20
2022-07-27T06:08:41.212Z,52.15
2022-07-27T06:11:07.731Z,52.18
2022-07-27T06:13:36.583Z,50.04
2022-07-27T06:16:04.354Z,51.33
2022-07-27T06:18:30.980Z,51.36
2022-07-27T06:20:57.824Z,51.03
2022-07-27T06:23:24.533Z,50.92
2022-07-27T06:25:51.024Z,48.96
2022-07-27T06:28:19.208Z,50.40
2022-07-27T06:30:46.737Z,50.20
2022-07-27T06:33:14.257Z,48.74
2022-07-27T06:35:41.746Z,49.48
2022-07-27T06:38:08.793Z,48.94
2022-07-27T06:40:37.644Z,47.20
2022-07-27T06:43:04.338Z,45.92
2022-07-27T06:45:30.981Z,46.23
2022-07-27T06:47:57.539Z,42.93
2022-07-27T06:50:24.223Z,43.18
2022-07-27T06:52:51.081Z,44.76
2022-07-27T06:55:17.858Z,44.61
2022-07-27T06:57:46.333Z,43.71
2022-07-27T07:00:13.767Z,44.94
2022-07-27T07:03:00.725Z,43.72
2022-07-27T07:05:27.474Z,44.05
2022-07-27T07:07:54.003Z,42.65
2022-07-27T07:10:21.013Z,41.58
2022-07-27T07:12:55.327Z,44.01
2022-07-27T07:15:23.937Z,41.60
2022-07-27T07:17:50.532Z,42.19
2022-07-27T07:20:17.107Z,43.24
2022-07-27T07:22:43.553Z,41.97
2022-07-27T07:25:10.038Z,41.76
2022-07-27T07:27:36.548Z,39.34
2022-07-27T07:30:06.621Z,39.77
2022-07-27T07:32:33.671Z,36.73
2022-07-27T07:35:01.550Z,37.63
2022-07-27T07:37:33.486Z,35.97
2022-07-27T07:40:18.850Z,37.27
2022-07-27T07:42:56.450Z,36.62
2022-07-27T07:45:24.405Z,39.13
2022-07-27T07:47:51.832Z,38.45
2022-07-27T07:50:19.543Z,37.47
2022-07-27T07:52:51.376Z,37.64
2022-07-27T07:55:26.353Z,37.60
2022-07-27T07:57:53.903Z,37.37
2022-07-27T08:00:21.708Z,36.51
2022-07-27T08:02:51.713Z,36.06
2022-07-27T08:05:18.665Z,36.30
2022-07-27T08:07:45.846Z,35.22
2022-07-27T08:10:14.990Z,35.87
2022-07-27T08:12:43.850Z,35.32
2022-07-27T08:15:11.612Z,37.11
2022-07-27T08:17:38.168Z,36.71
2022-07-27T08:20:06.690Z,36.49
2022-07-27T08:22:33.712Z,35.17
2022-07-27T08:25:00.194Z,35.78
2022-07-27T08:27:26.674Z,36.08
2022-07-27T08:29:53.133Z,33.61
2022-07-27T08:32:20.452Z,33.40
2022-07-27T08:34:47.164Z,34.98
2022-07-27T08:37:15.806Z,36.37
2022-07-27T08:40:38.340Z,35.02
2022-07-27T08:42:30.147Z,34.27
2022-07-27T08:44:58.236Z,33.84
2022-07-27T08:47:25.439Z,34.04
2022-07-27T08:49:52.703Z,33.88
2022-07-27T08:52:20.046Z,34.08
2022-07-27T08:54:47.204Z,35.48
2022-07-27T08:57:13.772Z,35.54
2022-07-27T08:59:40.247Z,36.96
2022-07-27T09:02:11.080Z,35.43
2022-07-27T09:04:40.664Z,35.66
2022-07-27T09:07:07.212Z,35.17
2022-07-27T09:09:45.828Z,34.00
2022-07-27T09:12:12.403Z,36.42
2022-07-27T09:14:41.292Z,35.71
2022-07-27T09:20:18.548Z,36.87
2022-07-27T09:22:47.389Z,37.59
2022-07-27T09:25:16.587Z,37.20
2022-07-27T09:27:45.676Z,39.17
2022-07-27T09:30:16.059Z,38.36
2022-07-27T09:33:14.926Z,37.32
2022-07-27T09:35:41.518Z,36.49
2022-07-27T09:38:22.551Z,35.64
2022-07-27T09:41:00.237Z,36.77
2022-07-27T09:46:16.249Z,36.05
2022-07-27T09:48:42.929Z,34.53
2022-07-27T09:51:55.683Z,33.21
2022-07-27T09:54:00.444Z,32.88
2022-07-27T09:56:32.095Z,33.47
2022-07-27T09:59:00.826Z,34.37
2022-07-27T10:01:30.750Z,36.10
2022-07-27T10:04:02.335Z,36.86
2022-07-27T10:06:35.737Z,37.82
2022-07-27T10:09:09.313Z,36.39
2022-07-27T10:11:36.468Z,36.35
2022-07-27T10:14:03.175Z,35.03
2022-07-27T10:16:31.649Z,33.33
2022-07-27T10:19:34.131Z,32.96
2022-07-27T10:22:00.798Z,33.34
2022-07-27T10:24:32.151Z,32.34
2022-07-27T10:26:59.275Z,34.21
2022-07-27T10:29:26.196Z,33.02
2022-07-27T10:31:52.580Z,32.76
2022-07-27T10:34:36.149Z,33.14
2022-07-27T10:37:13.961Z,33.25
2022-07-27T10:39:52.148Z,32.98
2022-07-27T10:42:24.448Z,32.27
2022-07-27T10:45:03.209Z,32.82
2022-07-27T10:47:34.155Z,34.04
2022-07-27T10:50:15.941Z,33.00
2022-07-27T10:52:44.945Z,31.99
2022-07-27T10:55:30.215Z,31.20
2022-07-27T10:58:02.953Z,31.06
2022-07-27T11:00:55.248Z,31.53
2022-07-27T11:03:26.629Z,31.27
2022-07-27T11:07:14.993Z,30.83
2022-07-27T11:11:56.045Z,30.39
2022-07-27T11:14:30.351Z,30.89
2022-07-27T11:17:07.906Z,30.71
2022-07-27T11:19:59.157Z,28.77
2022-07-27T11:25:26.704Z,29.58
2022-07-27T11:27:53.246Z,29.11
2022-07-27T11:30:27.986Z,29.71
2022-07-27T11:32:55.904Z,31.61
2022-07-27T11:35:24.047Z,30.17
2022-07-27T11:37:59.395Z,30.60
2022-07-27T11:40:56.481Z,30.59
2022-07-27T11:43:13.986Z,31.59
2022-07-27T11:45:42.886Z,30.44
2022-07-27T11:48:12.504Z,30.47
2022-07-27T11:50:58.986Z,30.17
2022-07-27T11:53:27.080Z,29.52
2022-07-27T11:55:53.621Z,29.48
2022-07-27T11:58:20.125Z,29.38
2022-07-27T12:00:46.603Z,30.19
2022-07-27T12:03:32.226Z,29.08
2022-07-27T12:06:13.835Z,29.32
2022-07-27T12:08:41.141Z,28.87
2022-07-27T12:11:10.640Z,30.51
2022-07-27T12:13:37.124Z,30.33
2022-07-27T12:16:03.905Z,29.70
2022-07-27T12:18:43.686Z,29.00
2022-07-27T12:21:19.590Z,29.23
2022-07-27T12:23:51.097Z,29.95
2022-07-27T12:26:25.270Z,28.43
2022-07-27T12:29:11.106Z,28.77
2022-07-27T12:31:47.923Z,27.55
2022-07-27T12:34:15.224Z,29.64
2022-07-27T12:36:42.406Z,28.72
2022-07-27T12:39:24.974Z,29.89
2022-07-27T12:42:02.741Z,28.95
2022-07-27T12:44:34.406Z,30.13
2022-07-27T12:47:02.582Z,29.73
2022-07-27T12:49:40.803Z,29.54
2022-07-27T12:52:11.182Z,29.62
2022-07-27T12:54:38.331Z,30.46
2022-07-27T12:57:04.875Z,30.35
2022-07-27T12:59:31.421Z,30.00
2022-07-27T13:01:58.070Z,30.34
2022-07-27T13:04:24.670Z,29.63
2022-07-27T13:06:51.231Z,29.54
2022-07-27T13:09:17.773Z,30.17
2022-07-27T13:11:47.891Z,29.94
2022-07-27T13:14:14.925Z,29.61
2022-07-27T13:16:41.560Z,30.11
2022-07-27T13:19:08.243Z,31.18
2022-07-27T13:21:34.836Z,32.00
2022-07-27T13:24:02.760Z,31.05
2022-07-27T13:26:29.231Z,31.14
2022-07-27T13:28:55.701Z,30.48
2022-07-27T13:31:22.314Z,29.67
2022-07-27T13:33:48.808Z,30.10
2022-07-27T13:36:15.401Z,29.78
2022-07-27T13:38:41.893Z,30.43
2022-07-27T13:41:08.601Z,30.53
2022-07-27T13:43:35.151Z,29.88
2022-07-27T13:46:03.361Z,30.16
2022-07-27T13:48:30.032Z,31.78
2022-07-27T13:50:56.573Z,30.71
2022-07-27T13:53:23.098Z,30.47
2022-07-27T13:55:49.656Z,31.42
2022-07-27T13:58:16.196Z,30.39
2022-07-27T14:00:42.785Z,30.97
2022-07-27T14:03:11.254Z,31.74
2022-07-27T14:05:38.145Z,31.14
2022-07-27T14:08:08.640Z,30.75
2022-07-27T14:10:44.525Z,30.72
2022-07-27T14:13:13.710Z,31.08
2022-07-27T14:15:54.398Z,30.71
2022-07-27T14:18:24.391Z,30.27
2022-07-27T14:20:50.957Z,30.46
2022-07-27T14:23:17.466Z,29.63
2022-07-27T14:25:44.059Z,30.36
2022-07-27T14:28:10.548Z,31.68
2022-07-27T14:30:37.050Z,30.23
2022-07-27T14:33:03.703Z,30.98
2022-07-27T14:35:30.558Z,30.60
2022-07-27T14:37:58.446Z,32.21
2022-07-27T14:40:25.686Z,31.23
2022-07-27T14:42:52.269Z,31.71
2022-07-27T14:45:19.812Z,32.08
2022-07-27T14:47:47.475Z,31.70
2022-07-27T14:50:14.941Z,32.16
2022-07-27T14:52:41.845Z,32.35
2022-07-27T14:55:09.490Z,31.90
2022-07-27T14:57:36.947Z,32.12
2022-07-27T15:00:10.260Z,30.93
2022-07-27T15:02:38.091Z,31.25
2022-07-27T15:05:05.449Z,30.58
2022-07-27T15:07:32.510Z,30.89
2022-07-27T15:09:59.105Z,30.30
2022-07-27T15:12:26.115Z,30.97
2022-07-27T15:14:52.890Z,30.48
2022-07-27T15:17:19.696Z,30.19
2022-07-27T15:19:46.531Z,29.53
2022-07-27T15:22:13.060Z,30.01
2022-07-27T15:24:39.546Z,31.45
2022-07-27T15:27:06.135Z,30.53
2022-07-27T15:29:32.706Z,29.82
2022-07-27T15:31:59.346Z,30.38
2022-07-27T15:34:26.836Z,30.81
2022-07-27T15:36:53.270Z,31.82
2022-07-27T15:39:21.531Z,31.40
2022-07-27T15:41:48.010Z,31.54
2022-07-27T15:44:18.672Z,31.17
2022-07-27T15:46:45.153Z,31.99
2022-07-27T15:49:12.352Z,30.87
2022-07-27T15:51:39.107Z,32.99
2022-07-27T15:54:05.612Z,32.53
2022-07-27T15:56:32.315Z,31.45
2022-07-27T15:58:58.873Z,32.30
2022-07-27T16:01:35.179Z,32.47
2022-07-27T16:04:02.358Z,31.84
2022-07-27T16:06:29.218Z,31.68
2022-07-27T16:08:55.738Z,31.65
2022-07-27T16:11:22.971Z,30.88
2022-07-27T16:13:49.512Z,30.73
2022-07-27T16:16:21.970Z,31.66
2022-07-27T16:18:49.003Z,31.14
2022-07-27T16:21:15.487Z,30.66
2022-07-27T16:23:41.976Z,31.93
2022-07-27T16:26:08.750Z,32.01
2022-07-27T16:28:39.226Z,31.61
2022-07-27T16:31:08.103Z,32.42
2022-07-27T16:33:34.859Z,32.43
2022-07-27T16:36:01.540Z,31.81
2022-07-27T16:38:28.495Z,32.13
2022-07-27T16:40:55.009Z,32.23
2022-07-27T16:43:21.568Z,33.05
2022-07-27T16:45:48.152Z,32.64
2022-07-27T16:48:14.879Z,31.84
2022-07-27T16:50:41.363Z,31.55
2022-07-27T16:53:08.002Z,31.47
2022-07-27T16:55:34.470Z,31.09
2022-07-27T16:58:00.960Z,31.87
2022-07-27T17:00:27.442Z,31.74
2022-07-27T17:02:54.013Z,32.73
2022-07-27T17:05:20.840Z,32.00
2022-07-27T17:07:50.241Z,32.32
2022-07-27T17:10:27.211Z,32.28
2022-07-27T17:12:54.564Z,32.95
2022-07-27T17:15:22.387Z,31.87
2022-07-27T17:17:48.847Z,31.97
2022-07-27T17:20:15.350Z,31.87
2022-07-27T17:22:54.286Z,32.12
2022-07-27T17:25:21.698Z,31.66
2022-07-27T17:27:48.630Z,33.45
2022-07-27T17:30:16.134Z,32.08
2022-07-27T17:32:42.888Z,32.69
2022-07-27T17:35:09.671Z,32.09
2022-07-27T17:38:03.472Z,33.39
2022-07-27T17:40:22.696Z,32.01
2022-07-27T17:42:52.117Z,32.27
2022-07-27T17:45:18.820Z,32.04
2022-07-27T17:47:45.359Z,32.38
2022-07-27T17:50:12.152Z,33.61
2022-07-27T17:52:38.777Z,32.68
2022-07-27T17:55:05.958Z,35.21
2022-07-27T17:57:32.527Z,34.26
2022-07-27T17:59:59.056Z,34.74
2022-07-27T18:02:25.762Z,34.81
2022-07-27T18:04:52.417Z,34.46
2022-07-27T18:07:19.315Z,34.04
2022-07-27T18:09:45.838Z,35.59
2022-07-27T18:12:12.349Z,35.03
2022-07-27T18:14:58.762Z,33.77
2022-07-27T18:17:25.317Z,35.17
2022-07-27T18:19:51.776Z,34.88
2022-07-27T18:22:18.292Z,34.84
2022-07-27T18:24:44.792Z,34.11
2022-07-27T18:27:11.335Z,33.93
2022-07-27T18:29:37.902Z,36.21
2022-07-27T18:32:05.451Z,34.67
2022-07-27T18:34:32.569Z,34.55
2022-07-27T18:36:59.116Z,35.67
2022-07-27T18:39:33.687Z,34.78
2022-07-27T18:42:03.687Z,34.43
2022-07-27T18:44:36.709Z,34.40
2022-07-27T18:47:05.358Z,34.29
2022-07-27T18:49:31.998Z,35.21
2022-07-27T18:51:58.632Z,34.74
2022-07-27T18:54:25.108Z,35.17
2022-07-27T18:56:52.295Z,34.85
2022-07-27T18:59:18.987Z,34.73
2022-07-27T19:01:45.530Z,35.02
2022-07-27T19:04:12.766Z,35.67
2022-07-27T19:06:42.576Z,35.79
2022-07-27T19:09:11.204Z,35.70
2022-07-27T19:11:37.877Z,35.92
2022-07-27T19:14:04.445Z,36.48
2022-07-27T19:16:31.035Z,35.87
2022-07-27T19:18:57.623Z,36.28
2022-07-27T19:21:24.258Z,36.53
2022-07-27T19:23:50.775Z,36.27
2022-07-27T19:26:17.628Z,36.45
2022-07-27T19:28:44.324Z,37.01
2022-07-27T19:31:22.713Z,37.07
2022-07-27T19:33:51.011Z,36.74
2022-07-27T19:36:18.049Z,37.40
2022-07-27T19:38:44.643Z,37.04
2022-07-27T19:41:11.142Z,37.24
2022-07-27T19:43:37.700Z,37.62
2022-07-27T19:46:04.271Z,37.62
2022-07-27T19:48:30.842Z,37.66
2022-07-27T19:51:00.924Z,37.85
2022-07-27T19:53:31.350Z,38.30
2022-07-27T19:55:59.878Z,38.07
2022-07-27T19:58:26.506Z,38.18
2022-07-27T20:00:53.238Z,38.59
2022-07-27T20:03:20.511Z,38.68
2022-07-27T20:05:47.843Z,39.09
2022-07-27T20:08:15.238Z,38.87
2022-07-27T20:10:42.566Z,39.57
2022-07-27T20:13:10.025Z,39.65
2022-07-27T20:15:36.905Z,38.96
2022-07-27T20:18:04.012Z,39.67
2022-07-27T20:20:30.801Z,39.38
2022-07-27T20:22:57.451Z,39.18
2022-07-27T20:25:24.478Z,39.71
2022-07-27T20:27:52.032Z,39.09
2022-07-27T20:30:19.868Z,39.56
2022-07-27T20:32:48.466Z,39.07
2022-07-27T20:35:15.388Z,40.31
2022-07-27T20:37:43.003Z,39.98
2022-07-27T20:40:11.676Z,40.20
2022-07-27T20:42:42.747Z,40.97
2022-07-27T20:45:12.704Z,39.77
2022-07-27T20:47:39.278Z,40.22
2022-07-27T20:50:10.884Z,40.25
2022-07-27T20:52:41.209Z,40.34
2022-07-27T20:55:08.756Z,40.40
2022-07-27T20:57:36.142Z,41.69
2022-07-27T21:00:03.337Z,41.25
2022-07-27T21:02:29.873Z,40.48
2022-07-27T21:04:57.174Z,40.60
2022-07-27T21:07:23.714Z,40.55
2022-07-27T21:09:50.200Z,41.12
2022-07-27T21:12:16.758Z,41.62
2022-07-27T21:14:43.606Z,41.89
2022-07-27T21:17:10.430Z,41.53
2022-07-27T21:19:37.144Z,42.74
2022-07-27T21:22:04.083Z,42.36
2022-07-27T21:24:30.577Z,43.19
2022-07-27T21:27:00.971Z,42.74
2022-07-27T21:29:31.843Z,44.52
2022-07-27T21:31:58.704Z,42.68
2022-07-27T21:34:25.210Z,42.12
2022-07-27T21:36:51.756Z,42.72
2022-07-27T21:39:20.022Z,43.45
2022-07-27T21:41:46.889Z,42.39
2022-07-27T21:44:14.307Z,43.82
2022-07-27T21:46:41.247Z,42.68
2022-07-27T21:49:13.152Z,43.88
2022-07-27T21:51:40.213Z,44.03
2022-07-27T21:54:06.860Z,44.49
2022-07-27T21:56:40.793Z,42.89
2022-07-27T21:59:08.467Z,43.69
2022-07-27T22:01:35.030Z,43.98
2022-07-27T22:04:01.981Z,43.78
2022-07-27T22:06:28.539Z,43.80
2022-07-27T22:08:55.020Z,44.50
2022-07-27T22:11:21.539Z,43.93
2022-07-27T22:13:48.004Z,46.65
2022-07-27T22:16:14.580Z,45.80
2022-07-27T22:18:41.107Z,44.51
2022-07-27T22:21:08.688Z,44.07
2022-07-27T22:23:35.234Z,44.04
2022-07-27T22:26:01.715Z,45.40
2022-07-27T22:28:28.180Z,48.23
2022-07-27T22:31:20.418Z,45.10
2022-07-27T22:33:44.530Z,47.93
2022-07-27T22:36:11.960Z,46.61
2022-07-27T22:38:39.122Z,45.43
2022-07-27T22:41:05.657Z,46.31
2022-07-27T22:43:32.156Z,45.63
2022-07-27T22:45:58.966Z,44.98
2022-07-27T22:48:25.587Z,45.78
2022-07-27T22:50:52.080Z,45.99
2022-07-27T22:53:18.633Z,46.55
2022-07-27T22:55:45.152Z,48.40
2022-07-27T22:58:11.807Z,45.68
2022-07-27T23:00:41.639Z,45.86
2022-07-27T23:03:08.154Z,45.51
2022-07-27T23:05:34.757Z,50.08
2022-07-27T23:08:01.348Z,47.55
2022-07-27T23:10:45.719Z,46.76
2022-07-27T23:13:17.315Z,48.29
2022-07-27T23:15:44.781Z,47.49
2022-07-27T23:18:12.195Z,47.38
2022-07-27T23:20:39.512Z,46.24
2022-07-27T23:23:15.774Z,47.87
2022-07-27T23:25:45.242Z,48.37
2022-07-27T23:28:11.999Z,45.46
2022-07-27T23:30:38.519Z,45.93
2022-07-27T23:33:05.159Z,47.85
2022-07-27T23:35:32.138Z,48.82
2022-07-27T23:38:00.098Z,47.01
2022-07-27T23:40:26.686Z,47.23
2022-07-27T23:42:53.491Z,47.66
2022-07-27T23:45:20.131Z,47.19
2022-07-27T23:47:46.601Z,47.16
2022-07-27T23:50:14.064Z,47.34
2022-07-27T23:52:40.614Z,47.92
2022-07-27T23:55:07.959Z,50.31
2022-07-27T23:57:34.537Z,49.30
